createdAt,value
2017-01-20T00:00:23.030Z,1.08
2017-01-20T00:01:23.033Z,1.14
2017-01-20T00:02:23.048Z,1.08
2017-01-20T00:03:37.979Z,1.05
2017-01-20T00:04:23.076Z,1.11
2017-01-20T00:05:23.090Z,1.15
2017-01-20T00:06:23.106Z,1
2017-01-20T00:07:23.121Z,1.15
2017-01-20T00:08:23.132Z,1.12
2017-01-20T00:09:23.150Z,1.23
2017-01-20T00:10:23.161Z,1.06
2017-01-20T00:11:23.177Z,1.06
2017-01-20T00:12:23.193Z,1.12
2017-01-20T00:13:23.208Z,1.15
2017-01-20T00:14:23.223Z,1.12
2017-01-20T00:17:23.262Z,1.09
2017-01-20T00:18:23.280Z,1.12
2017-01-20T00:19:23.294Z,1.18
2017-01-20T00:20:38.223Z,1.22
2017-01-20T00:21:23.325Z,1.12
2017-01-20T00:22:23.338Z,1.08
2017-01-20T00:23:23.348Z,1.24
2017-01-20T00:24:38.282Z,1.05
2017-01-20T00:26:23.394Z,1.06
2017-01-20T00:28:23.422Z,1.14
2017-01-20T00:29:23.439Z,1.14
2017-01-20T00:31:23.466Z,1.11
2017-01-20T00:32:23.479Z,1.09
2017-01-20T00:33:23.494Z,1.11
2017-01-20T00:34:23.509Z,1.15
2017-01-20T00:35:23.570Z,1.12
2017-01-20T00:36:23.837Z,1.18
2017-01-20T00:37:23.551Z,1.05
2017-01-20T00:38:23.563Z,1.12
2017-01-20T00:39:23.585Z,1.18
2017-01-20T00:40:38.512Z,1.18
2017-01-20T00:41:23.609Z,1.23
2017-01-20T00:42:23.627Z,1.24
2017-01-20T00:43:23.637Z,1.16
2017-01-20T00:44:23.655Z,1.2
2017-01-20T00:45:23.667Z,1.14
2017-01-20T00:47:23.693Z,1.15
2017-01-20T00:48:23.712Z,1.18
2017-01-20T00:49:23.726Z,1.18
2017-01-20T00:50:23.738Z,1.22
2017-01-20T00:51:23.766Z,1.26
2017-01-20T00:52:23.771Z,1.23
2017-01-20T00:53:23.784Z,1.3
2017-01-20T00:54:23.800Z,1.26
2017-01-20T00:55:23.811Z,1.22
2017-01-20T00:56:38.750Z,1.12
2017-01-20T00:57:23.838Z,1.23
2017-01-20T00:58:23.856Z,1.29
2017-01-20T00:59:23.869Z,1.29
2017-01-20T01:00:23.884Z,1.29
2017-01-20T01:01:23.903Z,1.22
2017-01-20T01:03:23.927Z,1.16
2017-01-20T01:04:23.940Z,1.27
2017-01-20T01:05:23.955Z,1.36
2017-01-20T01:06:23.970Z,1.29
2017-01-20T01:07:23.990Z,1.3
2017-01-20T01:08:23.999Z,1.29
2017-01-20T01:09:24.016Z,1.34
2017-01-20T01:10:24.030Z,1.3
2017-01-20T01:11:24.044Z,1.29
2017-01-20T01:12:38.978Z,1.27
2017-01-20T01:13:24.074Z,1.3
2017-01-20T01:14:24.096Z,1.27
2017-01-20T01:15:24.102Z,1.3
2017-01-20T01:16:24.113Z,1.26
2017-01-20T01:17:24.133Z,1.29
2017-01-20T01:18:24.142Z,1.34
2017-01-20T01:19:24.159Z,1.3
2017-01-20T01:21:24.189Z,1.33
2017-01-20T01:22:24.199Z,1.41
2017-01-20T01:23:24.241Z,1.52
2017-01-20T01:24:24.229Z,1.29
2017-01-20T01:25:24.243Z,1.41
2017-01-20T01:26:24.266Z,1.33
2017-01-20T01:27:39.191Z,1.42
2017-01-20T01:28:24.286Z,1.36
2017-01-20T01:29:24.302Z,1.45
2017-01-20T01:30:24.314Z,1.34
2017-01-20T01:31:24.331Z,1.41
2017-01-20T01:33:24.361Z,1.41
2017-01-20T01:34:24.374Z,1.36
2017-01-20T01:36:24.407Z,1.32
2017-01-20T01:37:39.339Z,1.47
2017-01-20T01:38:24.433Z,1.33
2017-01-20T01:39:24.448Z,1.41
2017-01-20T01:40:39.378Z,1.42
2017-01-20T01:41:24.477Z,1.37
2017-01-20T01:42:24.490Z,1.4
2017-01-20T01:43:24.507Z,1.4
2017-01-20T01:44:24.521Z,1.4
2017-01-20T01:45:24.539Z,1.44
2017-01-20T01:47:24.564Z,1.48
2017-01-20T01:48:24.582Z,1.44
2017-01-20T01:50:24.607Z,1.5
2017-01-20T01:52:39.557Z,1.42
2017-01-20T01:53:24.651Z,1.29
2017-01-20T01:54:24.670Z,1.44
2017-01-20T01:55:24.681Z,1.4
2017-01-20T01:56:24.694Z,1.51
2017-01-20T01:57:24.707Z,1.4
2017-01-20T01:58:24.724Z,1.3
2017-01-20T01:59:39.659Z,1.58
2017-01-20T02:00:24.755Z,1.45
2017-01-20T02:01:24.768Z,1.55
2017-01-20T02:02:24.784Z,1.44
2017-01-20T02:03:24.796Z,1.48
2017-01-20T02:04:24.810Z,1.45
2017-01-20T02:08:24.871Z,1.42
2017-01-20T02:09:24.888Z,1.45
2017-01-20T02:10:39.818Z,1.41
2017-01-20T02:11:24.914Z,1.4
2017-01-20T02:12:24.930Z,1.41
2017-01-20T02:13:24.946Z,1.44
2017-01-20T02:14:24.956Z,1.36
2017-01-20T02:15:39.890Z,1.34
2017-01-20T02:16:24.988Z,1.36
2017-01-20T02:17:25.003Z,1.45
2017-01-20T02:18:25.018Z,1.45
2017-01-20T02:19:25.033Z,1.41
2017-01-20T02:20:25.052Z,1.5
2017-01-20T02:21:25.086Z,1.48
2017-01-20T02:23:25.093Z,1.36
2017-01-20T02:24:25.106Z,1.4
2017-01-20T02:25:25.118Z,1.44
2017-01-20T02:26:40.052Z,1.47
2017-01-20T02:27:25.152Z,1.42
2017-01-20T02:28:25.167Z,1.5
2017-01-20T02:29:25.185Z,1.54
2017-01-20T02:30:25.192Z,1.55
2017-01-20T02:31:40.125Z,1.51
2017-01-20T02:32:25.221Z,1.62
2017-01-20T02:33:25.238Z,1.63
2017-01-20T02:34:25.252Z,1.58
2017-01-20T02:37:25.296Z,1.58
2017-01-20T02:38:25.308Z,1.62
2017-01-20T02:39:25.322Z,1.58
2017-01-20T02:42:25.369Z,1.55
2017-01-20T02:43:25.386Z,1.59
2017-01-20T02:44:25.398Z,1.58
2017-01-20T02:45:25.412Z,1.59
2017-01-20T02:46:25.430Z,1.55
2017-01-20T02:47:40.358Z,1.62
2017-01-20T02:48:25.456Z,1.59
2017-01-20T02:49:25.471Z,1.59
2017-01-20T02:50:25.484Z,1.37
2017-01-20T02:52:25.513Z,1.48
2017-01-20T02:53:25.527Z,1.48
2017-01-20T02:54:25.540Z,1.55
2017-01-20T02:55:25.557Z,1.58
2017-01-20T02:56:25.676Z,1.58
2017-01-20T02:57:25.589Z,1.65
2017-01-20T02:58:25.605Z,1.54
2017-01-20T02:59:40.533Z,1.63
2017-01-20T03:00:25.634Z,1.65
2017-01-20T03:01:25.653Z,1.52
2017-01-20T03:02:40.580Z,1.59
2017-01-20T03:03:25.678Z,1.63
2017-01-20T03:04:25.690Z,1.65
2017-01-20T03:05:25.704Z,1.59
2017-01-20T03:06:25.720Z,1.6
2017-01-20T03:07:25.734Z,1.54
2017-01-20T03:08:25.749Z,1.59
2017-01-20T03:09:25.764Z,1.58
2017-01-20T03:10:25.778Z,1.51
2017-01-20T03:11:40.713Z,1.52
2017-01-20T03:12:25.808Z,1.48
2017-01-20T03:13:25.822Z,1.51
2017-01-20T03:14:40.755Z,1.47
2017-01-20T03:15:25.850Z,1.47
2017-01-20T03:16:25.868Z,1.42
2017-01-20T03:17:40.827Z,1.5
2017-01-20T03:18:25.896Z,1.48
2017-01-20T03:19:25.911Z,1.58
2017-01-20T03:20:25.924Z,1.58
2017-01-20T03:21:25.939Z,1.47
2017-01-20T03:22:25.956Z,1.54
2017-01-20T03:23:25.969Z,1.52
2017-01-20T03:24:25.984Z,1.5
2017-01-20T03:25:25.998Z,1.44
2017-01-20T03:27:26.029Z,1.47
2017-01-20T03:28:26.044Z,1.51
2017-01-20T03:29:26.161Z,1.44
2017-01-20T03:30:26.069Z,1.5
2017-01-20T03:31:26.090Z,1.48
2017-01-20T03:32:26.101Z,1.45
2017-01-20T03:33:26.120Z,1.4
2017-01-20T03:34:41.048Z,1.48
2017-01-20T03:36:26.159Z,1.58
2017-01-20T03:37:26.175Z,1.58
2017-01-20T03:38:26.188Z,1.37
2017-01-20T03:39:26.203Z,1.33
2017-01-20T03:40:26.222Z,1.44
2017-01-20T03:41:26.234Z,1.4
2017-01-20T03:43:26.264Z,1.54
2017-01-20T03:44:41.196Z,1.55
2017-01-20T03:45:41.209Z,1.5
2017-01-20T03:46:26.309Z,1.42
2017-01-20T03:48:26.337Z,1.59
2017-01-20T03:49:26.375Z,1.5
2017-01-20T03:50:41.284Z,1.41
2017-01-20T03:51:26.391Z,1.42
2017-01-20T03:52:26.392Z,1.34
2017-01-20T03:53:26.410Z,1.42
2017-01-20T03:54:26.423Z,1.37
2017-01-20T03:55:26.449Z,1.37
2017-01-20T03:56:26.453Z,1.4
2017-01-20T03:57:26.466Z,1.42
2017-01-20T03:58:26.486Z,1.45
2017-01-20T03:59:26.887Z,1.36
2017-01-20T04:00:41.430Z,1.58
2017-01-20T04:01:26.526Z,1.6
2017-01-20T04:02:41.458Z,1.62
2017-01-20T04:03:26.556Z,1.63
2017-01-20T04:04:26.570Z,1.73
2017-01-20T04:05:26.586Z,1.79
2017-01-20T04:06:41.516Z,1.62
2017-01-20T04:07:26.664Z,1.55
2017-01-20T04:08:26.630Z,1.58
2017-01-20T04:09:26.642Z,1.62
2017-01-20T04:10:26.661Z,1.55
2017-01-20T04:11:26.672Z,1.58
2017-01-20T04:12:26.687Z,1.54
2017-01-20T04:13:26.703Z,1.63
2017-01-20T04:14:26.716Z,1.66
2017-01-20T04:15:41.651Z,1.54
2017-01-20T04:16:26.748Z,1.59
2017-01-20T04:17:26.760Z,1.55
2017-01-20T04:18:26.781Z,1.54
2017-01-20T04:19:26.789Z,1.5
2017-01-20T04:20:26.806Z,1.6
2017-01-20T04:21:26.822Z,1.68
2017-01-20T04:22:41.752Z,1.58
2017-01-20T04:23:26.848Z,1.55
2017-01-20T04:24:26.863Z,1.6
2017-01-20T04:25:26.878Z,1.59
2017-01-20T04:26:26.891Z,1.59
2017-01-20T04:27:26.907Z,1.63
2017-01-20T04:28:26.918Z,1.65
2017-01-20T04:29:26.934Z,1.68
2017-01-20T04:31:26.964Z,1.58
2017-01-20T04:32:26.978Z,1.63
2017-01-20T04:33:41.912Z,1.58
2017-01-20T04:34:41.925Z,1.54
2017-01-20T04:35:27.026Z,1.45
2017-01-20T04:36:27.037Z,1.55
2017-01-20T04:37:41.971Z,1.54
2017-01-20T04:38:27.069Z,1.47
2017-01-20T04:39:27.081Z,1.54
2017-01-20T04:41:27.113Z,1.48
2017-01-20T04:42:27.128Z,1.45
2017-01-20T04:43:27.143Z,1.51
2017-01-20T04:44:27.159Z,1.41
2017-01-20T04:45:27.174Z,1.37
2017-01-20T04:46:27.183Z,1.51
2017-01-20T04:47:42.119Z,1.55
2017-01-20T04:48:27.212Z,1.4
2017-01-20T04:49:27.235Z,1.51
2017-01-20T04:50:27.243Z,1.47
2017-01-20T04:51:27.259Z,1.63
2017-01-20T04:52:27.273Z,1.63
2017-01-20T04:53:27.290Z,1.6
2017-01-20T04:54:27.604Z,1.63
2017-01-20T04:55:27.318Z,1.58
2017-01-20T04:56:27.335Z,1.52
2017-01-20T04:58:27.360Z,1.66
2017-01-20T04:59:27.377Z,1.58
2017-01-20T05:00:27.392Z,1.59
2017-01-20T05:01:27.404Z,1.59
2017-01-20T05:02:27.424Z,1.54
2017-01-20T05:03:27.440Z,1.44
2017-01-20T05:04:27.450Z,1.5
2017-01-20T05:05:27.463Z,1.4
2017-01-20T05:06:27.482Z,1.51
2017-01-20T05:07:27.497Z,1.44
2017-01-20T05:08:27.509Z,1.48
2017-01-20T05:09:42.443Z,1.36
2017-01-20T05:10:27.541Z,1.4
2017-01-20T05:11:27.558Z,1.36
2017-01-20T05:12:27.567Z,1.34
2017-01-20T05:13:27.585Z,1.4
2017-01-20T05:14:27.597Z,1.47
2017-01-20T05:15:27.616Z,1.47
2017-01-20T05:16:27.627Z,1.44
2017-01-20T05:17:27.643Z,1.5
2017-01-20T05:18:27.667Z,1.54
2017-01-20T05:19:27.673Z,1.41
2017-01-20T05:20:27.688Z,1.33
2017-01-20T05:21:42.619Z,1.34
2017-01-20T05:22:27.717Z,1.5
2017-01-20T05:23:27.731Z,1.48
2017-01-20T05:24:27.748Z,1.47
2017-01-20T05:25:42.681Z,1.34
2017-01-20T05:26:27.776Z,1.42
2017-01-20T05:27:27.791Z,1.4
2017-01-20T05:28:27.808Z,1.4
2017-01-20T05:29:27.821Z,1.37
2017-01-20T05:30:27.834Z,1.47
2017-01-20T05:32:27.868Z,1.32
2017-01-20T05:33:42.801Z,1.37
2017-01-20T05:34:42.815Z,1.41
2017-01-20T05:35:27.908Z,1.41
2017-01-20T05:36:27.922Z,1.4
2017-01-20T05:37:27.939Z,1.47
2017-01-20T05:38:27.955Z,1.52
2017-01-20T05:39:27.978Z,1.44
2017-01-20T05:40:27.985Z,1.48
2017-01-20T05:41:42.915Z,1.62
2017-01-20T05:42:28.014Z,1.55
2017-01-20T05:43:28.033Z,1.51
2017-01-20T05:44:28.042Z,1.6
2017-01-20T05:45:28.055Z,1.62
2017-01-20T05:46:28.073Z,1.55
2017-01-20T05:47:28.086Z,1.51
2017-01-20T05:49:28.117Z,1.47
2017-01-20T05:50:28.131Z,1.62
2017-01-20T05:51:28.151Z,1.59
2017-01-20T05:52:43.079Z,1.51
2017-01-20T05:53:28.177Z,1.54
2017-01-20T05:54:28.188Z,1.55
2017-01-20T05:55:28.204Z,1.58
2017-01-20T05:56:28.218Z,1.55
2017-01-20T05:57:43.150Z,1.51
2017-01-20T05:58:28.249Z,1.59
2017-01-20T05:59:28.267Z,1.52
2017-01-20T06:00:28.280Z,1.52
2017-01-20T06:01:28.294Z,1.59
2017-01-20T06:02:28.310Z,1.54
2017-01-20T06:03:28.322Z,1.47
2017-01-20T06:04:28.339Z,1.51
2017-01-20T06:06:28.369Z,1.55
2017-01-20T06:07:28.384Z,1.65
2017-01-20T06:08:28.399Z,1.58
2017-01-20T06:09:43.328Z,1.58
2017-01-20T06:10:28.425Z,1.47
2017-01-20T06:11:28.442Z,1.41
2017-01-20T06:12:43.374Z,1.52
2017-01-20T06:13:28.473Z,1.63
2017-01-20T06:14:28.484Z,1.55
2017-01-20T06:15:28.500Z,1.58
2017-01-20T06:16:28.514Z,1.5
2017-01-20T06:17:28.529Z,1.44
2017-01-20T06:18:28.548Z,1.41
2017-01-20T06:21:28.591Z,1.41
2017-01-20T06:22:28.604Z,1.36
2017-01-20T06:23:43.536Z,1.33
2017-01-20T06:24:43.550Z,1.48
2017-01-20T06:25:28.647Z,1.4
2017-01-20T06:26:28.663Z,1.36
2017-01-20T06:27:28.677Z,1.45
2017-01-20T06:28:28.691Z,1.41
2017-01-20T06:29:28.706Z,1.48
2017-01-20T06:30:28.722Z,1.34
2017-01-20T06:31:28.736Z,1.36
2017-01-20T06:32:28.747Z,1.29
2017-01-20T06:33:28.763Z,1.37
2017-01-20T06:34:28.778Z,1.41
2017-01-20T06:35:28.813Z,1.34
2017-01-20T06:36:28.809Z,1.3
2017-01-20T06:37:28.824Z,1.23
2017-01-20T06:38:43.756Z,1.32
2017-01-20T06:39:43.770Z,1.11
2017-01-20T06:40:28.870Z,1.12
2017-01-20T06:41:28.881Z,1.26
2017-01-20T06:42:28.895Z,1.3
2017-01-20T06:43:28.913Z,1.32
2017-01-20T06:44:43.844Z,1.33
2017-01-20T06:46:28.953Z,1.33
2017-01-20T06:47:28.971Z,1.34
2017-01-20T06:48:28.983Z,1.32
2017-01-20T06:50:29.017Z,1.36
2017-01-20T06:51:29.031Z,1.32
2017-01-20T06:52:29.042Z,1.34
2017-01-20T06:53:29.057Z,1.45
2017-01-20T06:54:29.069Z,1.37
2017-01-20T06:55:29.093Z,1.37
2017-01-20T06:56:44.018Z,1.41
2017-01-20T06:57:29.115Z,1.3
2017-01-20T06:58:29.130Z,1.42
2017-01-20T06:59:29.150Z,1.47
2017-01-20T07:00:44.077Z,1.45
2017-01-20T07:01:29.175Z,1.51
2017-01-20T07:02:29.188Z,1.4
2017-01-20T07:03:29.206Z,1.4
2017-01-20T07:04:29.216Z,1.34
2017-01-20T07:05:29.232Z,1.4
2017-01-20T07:07:29.261Z,1.45
2017-01-20T07:08:29.282Z,1.47
2017-01-20T07:09:29.732Z,1.48
2017-01-20T07:10:44.225Z,1.44
2017-01-20T07:11:29.330Z,1.42
2017-01-20T07:12:44.256Z,1.4
2017-01-20T07:13:29.350Z,1.36
2017-01-20T07:14:29.366Z,1.45
2017-01-20T07:15:29.381Z,1.45
2017-01-20T07:16:44.311Z,1.59
2017-01-20T07:18:29.425Z,1.58
2017-01-20T07:19:29.440Z,1.54
2017-01-20T07:21:29.469Z,1.69
2017-01-20T07:24:29.518Z,1.63
2017-01-20T07:25:29.527Z,1.66
2017-01-20T07:26:29.540Z,1.63
2017-01-20T07:27:29.557Z,1.8
2017-01-20T07:28:44.489Z,1.66
2017-01-20T07:29:29.587Z,1.65
2017-01-20T07:30:29.608Z,1.7
2017-01-20T07:31:29.617Z,1.73
2017-01-20T07:32:44.548Z,1.68
2017-01-20T07:33:29.647Z,1.68
2017-01-20T07:34:29.661Z,1.8
2017-01-20T07:35:29.692Z,1.77
2017-01-20T07:36:29.689Z,1.79
2017-01-20T07:37:29.705Z,1.76
2017-01-20T07:40:29.751Z,1.73
2017-01-20T07:41:29.763Z,1.73
2017-01-20T07:42:29.781Z,1.7
2017-01-20T07:43:29.795Z,1.81
2017-01-20T07:44:44.726Z,1.8
2017-01-20T07:45:29.826Z,1.79
2017-01-20T07:46:29.838Z,1.79
2017-01-20T07:47:44.773Z,1.88
2017-01-20T07:48:29.873Z,1.84
2017-01-20T07:49:29.884Z,1.9
2017-01-20T07:50:29.905Z,1.91
2017-01-20T07:51:29.916Z,1.87
2017-01-20T07:52:29.929Z,1.99
2017-01-20T07:53:29.944Z,1.91
2017-01-20T07:54:29.959Z,2.06
2017-01-20T07:55:29.974Z,2.03
2017-01-20T07:56:29.989Z,1.93
2017-01-20T07:57:30.003Z,1.99
2017-01-20T07:58:44.938Z,2.05
2017-01-20T07:59:44.951Z,2.06
2017-01-20T08:00:30.048Z,2.07
2017-01-20T08:01:30.061Z,2.05
2017-01-20T08:02:30.078Z,2.16
2017-01-20T08:04:30.108Z,2.14
2017-01-20T08:05:30.126Z,2.25
2017-01-20T08:07:30.151Z,2.14
2017-01-20T08:08:30.165Z,2.18
2017-01-20T08:10:30.219Z,2.28
2017-01-20T08:11:30.213Z,2.25
2017-01-20T08:12:30.228Z,2.18
2017-01-20T08:13:30.260Z,2.35
2017-01-20T08:14:45.176Z,2.31
2017-01-20T08:15:30.278Z,2.31
2017-01-20T08:16:30.286Z,2.28
2017-01-20T08:17:30.306Z,2.3
2017-01-20T08:18:30.316Z,2.39
2017-01-20T08:19:45.249Z,2.38
2017-01-20T08:20:30.348Z,2.35
2017-01-20T08:21:30.381Z,2.42
2017-01-20T08:22:30.379Z,2.41
2017-01-20T08:23:30.391Z,2.36
2017-01-20T08:25:30.420Z,2.52
2017-01-20T08:26:30.439Z,2.53
2017-01-20T08:27:30.453Z,2.48
2017-01-20T08:28:30.468Z,2.59
2017-01-20T08:29:30.489Z,2.53
2017-01-20T08:30:30.501Z,2.49
2017-01-20T08:31:30.515Z,2.64
2017-01-20T08:32:30.530Z,2.66
2017-01-20T08:33:30.545Z,2.57
2017-01-20T08:34:30.564Z,2.56
2017-01-20T08:35:45.703Z,2.56
2017-01-20T08:36:30.588Z,2.57
2017-01-20T08:37:30.611Z,2.67
2017-01-20T08:39:30.635Z,2.72
2017-01-20T08:40:30.654Z,2.82
2017-01-20T08:42:30.704Z,2.78
2017-01-20T08:43:30.701Z,2.87
2017-01-20T08:44:31.095Z,2.96
2017-01-20T08:45:30.731Z,2.81
2017-01-20T08:46:30.744Z,2.95
2017-01-20T08:47:30.759Z,2.93
2017-01-20T08:48:30.774Z,2.89
2017-01-20T08:49:30.790Z,2.92
2017-01-20T08:50:30.806Z,3.05
2017-01-20T08:51:45.740Z,3.11
2017-01-20T08:52:30.837Z,2.92
2017-01-20T08:53:30.858Z,2.96
2017-01-20T08:55:31.293Z,3
2017-01-20T08:56:30.897Z,2.96
2017-01-20T08:57:30.915Z,3.14
2017-01-20T08:58:30.930Z,3.08
2017-01-20T08:59:30.949Z,3.17
2017-01-20T09:00:30.971Z,3.21
2017-01-20T09:01:30.977Z,3.05
2017-01-20T09:02:30.995Z,3.13
2017-01-20T09:03:31.022Z,3.23
2017-01-20T09:04:31.026Z,3.2
2017-01-20T09:05:31.043Z,3.31
2017-01-20T09:06:31.058Z,3.23
2017-01-20T09:07:45.991Z,3.29
2017-01-20T09:08:31.090Z,3.31
2017-01-20T09:09:31.104Z,3.47
2017-01-20T09:10:31.121Z,3.42
2017-01-20T09:11:31.142Z,3.47
2017-01-20T09:12:31.155Z,3.57
2017-01-20T09:13:31.168Z,3.48
2017-01-20T09:14:31.187Z,3.43
2017-01-20T09:15:31.202Z,3.6
2017-01-20T09:16:31.218Z,3.7
2017-01-20T09:17:31.233Z,3.62
2017-01-20T09:18:31.249Z,3.69
2017-01-20T09:19:31.266Z,3.69
2017-01-20T09:20:31.283Z,3.6
2017-01-20T09:21:31.300Z,3.65
2017-01-20T09:22:46.231Z,3.54
2017-01-20T09:23:31.334Z,3.61
2017-01-20T09:24:31.346Z,3.62
2017-01-20T09:25:31.363Z,3.42
2017-01-20T09:26:31.380Z,3.4
2017-01-20T09:27:31.399Z,3.32
2017-01-20T09:28:31.415Z,3.33
2017-01-20T09:29:31.431Z,3.43
2017-01-20T09:30:31.447Z,3.43
2017-01-20T09:31:31.461Z,3.35
2017-01-20T09:32:31.478Z,3.48
2017-01-20T09:33:46.412Z,3.54
2017-01-20T09:34:31.518Z,3.5
2017-01-20T09:35:46.443Z,3.5
2017-01-20T09:36:31.545Z,3.6
2017-01-20T09:37:31.558Z,3.72
2017-01-20T09:38:31.576Z,3.75
2017-01-20T09:39:31.590Z,3.72
2017-01-20T09:40:31.608Z,3.68
2017-01-20T09:41:31.624Z,3.7
2017-01-20T09:42:31.640Z,3.66
2017-01-20T09:43:31.657Z,3.62
2017-01-20T09:44:31.676Z,3.7
2017-01-20T09:46:31.707Z,3.84
2017-01-20T09:47:31.725Z,3.76
2017-01-20T09:48:46.659Z,3.83
2017-01-20T09:49:31.758Z,3.79
2017-01-20T09:50:46.690Z,3.84
2017-01-20T09:51:31.787Z,3.78
2017-01-20T09:52:31.804Z,3.87
2017-01-20T09:53:31.820Z,3.94
2017-01-20T09:54:46.756Z,3.9
2017-01-20T09:55:31.857Z,3.88
2017-01-20T09:56:31.877Z,3.78
2017-01-20T09:57:31.888Z,3.83
2017-01-20T09:58:31.910Z,3.84
2017-01-20T09:59:31.919Z,3.83
2017-01-20T10:01:46.876Z,3.9
2017-01-20T10:02:31.970Z,3.83
2017-01-20T10:03:31.988Z,3.9
2017-01-20T10:04:32.001Z,3.94
2017-01-20T10:05:32.022Z,4
2017-01-20T10:06:32.036Z,3.97
2017-01-20T10:07:32.054Z,3.88
2017-01-20T10:08:32.072Z,3.94
2017-01-20T10:09:32.088Z,3.9
2017-01-20T10:10:47.021Z,3.84
2017-01-20T10:11:32.120Z,3.91
2017-01-20T10:12:32.134Z,3.91
2017-01-20T10:13:32.151Z,3.8
2017-01-20T10:14:47.094Z,3.72
2017-01-20T10:15:32.185Z,3.65
2017-01-20T10:17:32.222Z,3.83
2017-01-20T10:18:32.235Z,3.9
2017-01-20T10:19:47.172Z,3.88
2017-01-20T10:20:32.268Z,3.87
2017-01-20T10:21:47.202Z,3.96
2017-01-20T10:22:47.218Z,3.87
2017-01-20T10:23:32.316Z,3.91
2017-01-20T10:24:32.332Z,3.72
2017-01-20T10:25:32.352Z,3.8
2017-01-20T10:26:47.283Z,3.94
2017-01-20T10:27:32.382Z,3.94
2017-01-20T10:28:32.404Z,3.86
2017-01-20T10:30:32.821Z,3.98
2017-01-20T10:31:32.448Z,4
2017-01-20T10:32:32.466Z,4.09
2017-01-20T10:33:32.487Z,4.05
2017-01-20T10:34:32.498Z,4.15
2017-01-20T10:35:32.514Z,4.27
2017-01-20T10:36:32.531Z,4.26
2017-01-20T10:37:32.547Z,4.18
2017-01-20T10:38:47.482Z,4.22
2017-01-20T10:39:32.581Z,4.15
2017-01-20T10:40:32.600Z,4.05
2017-01-20T10:41:32.618Z,4.04
2017-01-20T10:42:47.550Z,4.09
2017-01-20T10:43:32.649Z,4.2
2017-01-20T10:44:32.668Z,4.08
2017-01-20T10:45:47.608Z,3.88
2017-01-20T10:46:32.699Z,4.06
2017-01-20T10:47:32.742Z,4.05
2017-01-20T10:48:32.734Z,4.27
2017-01-20T10:49:32.747Z,4.37
2017-01-20T10:50:32.767Z,4.37
2017-01-20T10:51:32.783Z,4.47
2017-01-20T10:52:32.798Z,4.52
2017-01-20T10:53:32.822Z,4.5
2017-01-20T10:54:32.832Z,4.54
2017-01-20T10:55:32.854Z,4.47
2017-01-20T10:56:32.868Z,4.44
2017-01-20T10:57:47.804Z,4.44
2017-01-20T10:58:32.902Z,4.41
2017-01-20T10:59:32.917Z,4.41
2017-01-20T11:00:32.938Z,4.47
2017-01-20T11:01:32.951Z,4.47
2017-01-20T11:02:32.969Z,4.47
2017-01-20T11:03:32.985Z,4.52
2017-01-20T11:04:33.003Z,4.47
2017-01-20T11:05:33.029Z,4.36
2017-01-20T11:06:33.036Z,4.41
2017-01-20T11:07:47.974Z,4.6
2017-01-20T11:08:33.071Z,4.59
2017-01-20T11:09:33.089Z,4.51
2017-01-20T11:10:48.022Z,4.59
2017-01-20T11:11:33.121Z,4.66
2017-01-20T11:12:33.136Z,4.63
2017-01-20T11:13:33.548Z,4.67
2017-01-20T11:14:33.175Z,4.66
2017-01-20T11:15:33.191Z,4.65
2017-01-20T11:16:33.207Z,4.69
2017-01-20T11:17:33.223Z,4.69
2017-01-20T11:18:33.240Z,4.69
2017-01-20T11:19:33.258Z,4.69
2017-01-20T11:20:33.273Z,4.75
2017-01-20T11:21:33.321Z,4.5
2017-01-20T11:22:33.311Z,4.4
2017-01-20T11:23:33.328Z,4.34
2017-01-20T11:24:48.262Z,4.45
2017-01-20T11:25:33.369Z,4.48
2017-01-20T11:26:33.376Z,4.45
2017-01-20T11:27:33.394Z,4.45
2017-01-20T11:28:33.411Z,4.55
2017-01-20T11:29:48.346Z,4.67
2017-01-20T11:30:33.447Z,4.65
2017-01-20T11:31:33.464Z,4.88
2017-01-20T11:32:33.481Z,4.91
2017-01-20T11:33:33.499Z,4.86
2017-01-20T11:34:33.519Z,4.88
2017-01-20T11:35:33.535Z,4.94
2017-01-20T11:36:33.549Z,4.82
2017-01-20T11:37:33.572Z,4.85
2017-01-20T11:38:33.586Z,4.7
2017-01-20T11:39:33.609Z,4.73
2017-01-20T11:40:33.623Z,4.84
2017-01-20T11:41:33.640Z,4.94
2017-01-20T11:42:33.658Z,4.97
2017-01-20T11:43:33.672Z,4.96
2017-01-20T11:44:33.690Z,4.88
2017-01-20T11:45:48.624Z,4.77
2017-01-20T11:46:33.725Z,4.78
2017-01-20T11:47:33.741Z,4.77
2017-01-20T11:48:33.758Z,4.85
2017-01-20T11:50:33.794Z,4.88
2017-01-20T11:52:33.828Z,4.84
2017-01-20T11:53:33.848Z,4.78
2017-01-20T11:55:33.891Z,4.85
2017-01-20T11:56:48.818Z,4.78
2017-01-20T11:57:33.919Z,4.73
2017-01-20T11:58:48.851Z,4.72
2017-01-20T11:59:33.954Z,4.69
2017-01-20T12:00:34.070Z,4.69
2017-01-20T12:01:48.905Z,4.67
2017-01-20T12:02:34.005Z,4.67
2017-01-20T12:03:34.022Z,4.65
2017-01-20T12:04:34.045Z,4.8
2017-01-20T12:05:34.055Z,4.69
2017-01-20T12:06:34.072Z,4.73
2017-01-20T12:08:34.111Z,4.73
2017-01-20T12:09:34.125Z,4.88
2017-01-20T12:10:34.144Z,4.7
2017-01-20T12:11:49.080Z,4.72
2017-01-20T12:12:34.177Z,4.8
2017-01-20T12:13:34.225Z,4.72
2017-01-20T12:14:34.212Z,4.72
2017-01-20T12:15:34.260Z,4.72
2017-01-20T12:16:34.248Z,4.73
2017-01-20T12:17:49.184Z,4.7
2017-01-20T12:18:34.675Z,4.78
2017-01-20T12:19:34.298Z,4.96
2017-01-20T12:20:34.323Z,4.96
2017-01-20T12:21:34.340Z,4.91
2017-01-20T12:23:34.367Z,4.92
2017-01-20T12:24:34.385Z,4.89
2017-01-20T12:25:34.408Z,4.88
2017-01-20T12:26:34.421Z,4.97
2017-01-20T12:27:34.438Z,5.02
2017-01-20T12:29:34.479Z,5.03
2017-01-20T12:30:34.491Z,5.1
2017-01-20T12:31:34.538Z,5.1
2017-01-20T12:32:49.445Z,5.13
2017-01-20T12:33:34.546Z,5.12
2017-01-20T12:34:34.564Z,5.04
2017-01-20T12:35:34.578Z,4.97
2017-01-20T12:36:34.601Z,4.85
2017-01-20T12:37:34.616Z,4.91
2017-01-20T12:38:34.632Z,5.06
2017-01-20T12:39:34.651Z,4.91
2017-01-20T12:40:34.673Z,4.92
2017-01-20T12:41:34.684Z,4.92
2017-01-20T12:42:49.622Z,5.1
2017-01-20T12:43:34.722Z,5.15
2017-01-20T12:44:34.741Z,5.24
2017-01-20T12:45:34.755Z,5.25
2017-01-20T12:46:34.772Z,5.1
2017-01-20T12:47:34.790Z,4.94
2017-01-20T12:48:34.808Z,5.07
2017-01-20T12:49:34.825Z,4.96
2017-01-20T12:50:34.872Z,4.94
2017-01-20T12:51:34.861Z,5.02
2017-01-20T12:53:34.897Z,5.02
2017-01-20T12:54:34.923Z,5.04
2017-01-20T12:55:35.235Z,5.02
2017-01-20T12:56:34.947Z,4.97
2017-01-20T12:57:34.968Z,5.06
2017-01-20T12:58:34.981Z,4.89
2017-01-20T12:59:49.920Z,4.89
2017-01-20T13:00:49.937Z,4.82
2017-01-20T13:01:35.035Z,4.66
2017-01-20T13:02:35.052Z,4.77
2017-01-20T13:03:35.071Z,4.86
2017-01-20T13:04:50.007Z,4.89
2017-01-20T13:05:35.114Z,4.73
2017-01-20T13:06:35.123Z,4.7
2017-01-20T13:07:35.141Z,4.75
2017-01-20T13:08:35.543Z,4.96
2017-01-20T13:11:35.212Z,4.96
2017-01-20T13:12:35.232Z,5.07
2017-01-20T13:13:35.246Z,5.12
2017-01-20T13:14:35.262Z,5.02
2017-01-20T13:15:35.286Z,5.13
2017-01-20T13:16:35.301Z,5.1
2017-01-20T13:17:35.319Z,5.12
2017-01-20T13:18:35.334Z,4.97
2017-01-20T13:19:35.352Z,5.03
2017-01-20T13:21:35.387Z,4.97
2017-01-20T13:22:35.404Z,5.07
2017-01-20T13:23:35.423Z,5
2017-01-20T13:24:35.438Z,5.02
2017-01-20T13:25:35.471Z,5.15
2017-01-20T13:26:35.473Z,5.06
2017-01-20T13:27:35.492Z,5.06
2017-01-20T13:28:35.511Z,5.02
2017-01-20T13:29:35.529Z,5.02
2017-01-20T13:30:35.541Z,5.06
2017-01-20T13:31:35.567Z,5.07
2017-01-20T13:32:35.582Z,5.06
2017-01-20T13:33:35.599Z,5.04
2017-01-20T13:34:35.644Z,5.07
2017-01-20T13:35:35.630Z,5.02
2017-01-20T13:36:50.616Z,4.91
2017-01-20T13:37:35.668Z,4.82
2017-01-20T13:38:35.694Z,4.75
2017-01-20T13:39:35.702Z,4.77
2017-01-20T13:40:35.717Z,4.77
2017-01-20T13:41:35.735Z,4.85
2017-01-20T13:42:35.752Z,4.86
2017-01-20T13:43:35.773Z,4.85
2017-01-20T13:44:35.789Z,4.89
2017-01-20T13:45:35.807Z,4.88
2017-01-20T13:46:35.823Z,4.84
2017-01-20T13:47:35.842Z,4.84
2017-01-20T13:48:50.776Z,4.82
2017-01-20T13:49:35.876Z,4.8
2017-01-20T13:50:35.894Z,4.91
2017-01-20T13:51:35.910Z,4.88
2017-01-20T13:52:50.847Z,4.72
2017-01-20T13:53:35.945Z,4.86
2017-01-20T13:54:35.962Z,4.88
2017-01-20T13:55:35.979Z,4.73
2017-01-20T13:56:35.997Z,4.73
2017-01-20T13:57:36.015Z,4.67
2017-01-20T13:58:36.331Z,4.73
2017-01-20T13:59:36.050Z,4.69
2017-01-20T14:01:36.087Z,4.69
2017-01-20T14:02:36.101Z,4.8
2017-01-20T14:03:36.118Z,4.73
2017-01-20T14:04:36.136Z,4.73
2017-01-20T14:05:36.160Z,4.8
2017-01-20T14:06:36.170Z,4.67
2017-01-20T14:07:51.108Z,4.77
2017-01-20T14:08:36.212Z,4.82
2017-01-20T14:09:36.222Z,4.72
2017-01-20T14:10:36.240Z,4.65
2017-01-20T14:11:36.265Z,4.69
2017-01-20T14:12:36.278Z,4.69
2017-01-20T14:13:36.297Z,4.67
2017-01-20T14:14:36.309Z,4.63
2017-01-20T14:15:36.326Z,4.73
2017-01-20T14:16:36.347Z,4.73
2017-01-20T14:17:36.370Z,4.67
2017-01-20T14:18:36.388Z,4.66
2017-01-20T14:19:36.401Z,4.62
2017-01-20T14:20:36.414Z,4.58
2017-01-20T14:21:36.432Z,4.58
2017-01-20T14:22:36.450Z,4.6
2017-01-20T14:23:36.465Z,4.66
2017-01-20T14:24:36.495Z,4.63
2017-01-20T14:25:36.499Z,4.63
2017-01-20T14:26:36.516Z,4.66
2017-01-20T14:27:36.536Z,4.69